sensor_id;sensor_type;location;lat;lon;timestamp;P1;durP1;ratioP1;P2;durP2;ratioP2
36817;SDS011;22761;51.542;16.450;2022-08-20T00:00:42;33.13;;;29.60;;
36817;SDS011;22761;51.542;16.450;2022-08-20T00:03:15;31.50;;;28.25;;
36817;SDS011;22761;51.542;16.450;2022-08-20T00:05:53;33.08;;;29.57;;
36817;SDS011;22761;51.542;16.450;2022-08-20T00:08:18;32.13;;;28.73;;
36817;SDS011;22761;51.542;16.450;2022-08-20T00:10:48;32.25;;;28.85;;
36817;SDS011;22761;51.542;16.450;2022-08-20T00:13:18;32.80;;;28.55;;
36817;SDS011;22761;51.542;16.450;2022-08-20T00:15:48;32.15;;;28.85;;
36817;SDS011;22761;51.542;16.450;2022-08-20T00:18:16;34.00;;;29.02;;
36817;SDS011;22761;51.542;16.450;2022-08-20T00:20:45;32.85;;;29.23;;
36817;SDS011;22761;51.542;16.450;2022-08-20T00:23:15;32.45;;;29.00;;
36817;SDS011;22761;51.542;16.450;2022-08-20T00:25:43;34.70;;;29.87;;
36817;SDS011;22761;51.542;16.450;2022-08-20T00:28:11;31.25;;;27.77;;
36817;SDS011;22761;51.542;16.450;2022-08-20T00:30:40;31.12;;;27.58;;
36817;SDS011;22761;51.542;16.450;2022-08-20T00:33:20;32.25;;;28.73;;
36817;SDS011;22761;51.542;16.450;2022-08-20T00:35:48;32.10;;;28.60;;
36817;SDS011;22761;51.542;16.450;2022-08-20T00:38:18;33.05;;;28.20;;
36817;SDS011;22761;51.542;16.450;2022-08-20T00:40:53;33.67;;;29.72;;
36817;SDS011;22761;51.542;16.450;2022-08-20T00:43:25;34.03;;;29.37;;
36817;SDS011;22761;51.542;16.450;2022-08-20T00:45:59;34.18;;;30.55;;
36817;SDS011;22761;51.542;16.450;2022-08-20T00:48:36;35.70;;;31.15;;
36817;SDS011;22761;51.542;16.450;2022-08-20T00:51:08;35.43;;;30.92;;
36817;SDS011;22761;51.542;16.450;2022-08-20T00:53:40;38.88;;;31.60;;
36817;SDS011;22761;51.542;16.450;2022-08-20T00:56:08;35.25;;;30.65;;
36817;SDS011;22761;51.542;16.450;2022-08-20T00:58:36;35.68;;;31.30;;
36817;SDS011;22761;51.542;16.450;2022-08-20T01:01:07;36.65;;;31.77;;
36817;SDS011;22761;51.542;16.450;2022-08-20T01:03:35;38.30;;;31.07;;
36817;SDS011;22761;51.542;16.450;2022-08-20T01:06:03;34.90;;;31.10;;
36817;SDS011;22761;51.542;16.450;2022-08-20T01:08:30;32.60;;;29.15;;
36817;SDS011;22761;51.542;16.450;2022-08-20T01:10:58;33.35;;;29.52;;
36817;SDS011;22761;51.542;16.450;2022-08-20T01:13:37;36.28;;;29.82;;
36817;SDS011;22761;51.542;16.450;2022-08-20T01:16:08;35.60;;;30.20;;
36817;SDS011;22761;51.542;16.450;2022-08-20T01:18:41;33.90;;;28.70;;
36817;SDS011;22761;51.542;16.450;2022-08-20T01:21:09;32.85;;;27.77;;
36817;SDS011;22761;51.542;16.450;2022-08-20T01:26:13;30.70;;;27.30;;
36817;SDS011;22761;51.542;16.450;2022-08-20T01:28:51;35.03;;;27.30;;
36817;SDS011;22761;51.542;16.450;2022-08-20T01:31:26;30.95;;;26.97;;
36817;SDS011;22761;51.542;16.450;2022-08-20T01:33:57;30.10;;;26.20;;
36817;SDS011;22761;51.542;16.450;2022-08-20T01:36:28;30.52;;;26.77;;
36817;SDS011;22761;51.542;16.450;2022-08-20T01:39:06;28.83;;;25.27;;
36817;SDS011;22761;51.542;16.450;2022-08-20T01:41:54;29.72;;;25.82;;
36817;SDS011;22761;51.542;16.450;2022-08-20T01:44:37;28.50;;;25.32;;
36817;SDS011;22761;51.542;16.450;2022-08-20T01:47:10;30.17;;;26.37;;
36817;SDS011;22761;51.542;16.450;2022-08-20T01:49:44;30.57;;;25.80;;
36817;SDS011;22761;51.542;16.450;2022-08-20T01:52:22;28.17;;;25.25;;
36817;SDS011;22761;51.542;16.450;2022-08-20T01:55:17;30.23;;;24.63;;
36817;SDS011;22761;51.542;16.450;2022-08-20T01:57:44;28.15;;;25.00;;
36817;SDS011;22761;51.542;16.450;2022-08-20T02:00:14;31.05;;;26.17;;
36817;SDS011;22761;51.542;16.450;2022-08-20T02:02:44;28.60;;;25.52;;
36817;SDS011;22761;51.542;16.450;2022-08-20T02:05:11;27.93;;;24.55;;
36817;SDS011;22761;51.542;16.450;2022-08-20T02:07:38;30.95;;;25.85;;
36817;SDS011;22761;51.542;16.450;2022-08-20T02:10:07;29.52;;;24.92;;
36817;SDS011;22761;51.542;16.450;2022-08-20T02:12:41;26.73;;;23.87;;
36817;SDS011;22761;51.542;16.450;2022-08-20T02:15:15;28.30;;;25.30;;
36817;SDS011;22761;51.542;16.450;2022-08-20T02:17:42;29.05;;;24.72;;
36817;SDS011;22761;51.542;16.450;2022-08-20T02:20:15;28.17;;;24.23;;
36817;SDS011;22761;51.542;16.450;2022-08-20T02:22:45;30.80;;;25.43;;
36817;SDS011;22761;51.542;16.450;2022-08-20T02:25:17;27.85;;;23.90;;
36817;SDS011;22761;51.542;16.450;2022-08-20T02:27:47;26.75;;;23.85;;
36817;SDS011;22761;51.542;16.450;2022-08-20T02:32:50;29.05;;;25.25;;
36817;SDS011;22761;51.542;16.450;2022-08-20T02:35:17;28.10;;;25.00;;
36817;SDS011;22761;51.542;16.450;2022-08-20T02:37:44;27.17;;;24.23;;
36817;SDS011;22761;51.542;16.450;2022-08-20T02:40:14;27.82;;;24.65;;
36817;SDS011;22761;51.542;16.450;2022-08-20T02:42:43;29.82;;;26.42;;
36817;SDS011;22761;51.542;16.450;2022-08-20T02:45:13;26.82;;;23.73;;
36817;SDS011;22761;51.542;16.450;2022-08-20T02:47:43;29.48;;;25.55;;
36817;SDS011;22761;51.542;16.450;2022-08-20T02:50:12;27.93;;;24.55;;
36817;SDS011;22761;51.542;16.450;2022-08-20T02:52:42;28.85;;;25.75;;
36817;SDS011;22761;51.542;16.450;2022-08-20T02:55:10;32.08;;;27.27;;
36817;SDS011;22761;51.542;16.450;2022-08-20T02:57:39;31.13;;;25.87;;
36817;SDS011;22761;51.542;16.450;2022-08-20T03:00:09;31.70;;;25.83;;
36817;SDS011;22761;51.542;16.450;2022-08-20T03:02:43;31.93;;;25.55;;
36817;SDS011;22761;51.542;16.450;2022-08-20T03:05:11;27.80;;;24.32;;
36817;SDS011;22761;51.542;16.450;2022-08-20T03:07:48;30.82;;;25.68;;
36817;SDS011;22761;51.542;16.450;2022-08-20T03:10:14;29.18;;;26.05;;
36817;SDS011;22761;51.542;16.450;2022-08-20T03:12:41;29.52;;;25.50;;
36817;SDS011;22761;51.542;16.450;2022-08-20T03:15:09;30.25;;;26.57;;
36817;SDS011;22761;51.542;16.450;2022-08-20T03:17:36;30.92;;;25.85;;
36817;SDS011;22761;51.542;16.450;2022-08-20T03:20:04;28.90;;;25.05;;
36817;SDS011;22761;51.542;16.450;2022-08-20T03:22:33;29.27;;;24.45;;
36817;SDS011;22761;51.542;16.450;2022-08-20T03:25:00;29.48;;;25.90;;
36817;SDS011;22761;51.542;16.450;2022-08-20T03:27:28;28.55;;;25.55;;
36817;SDS011;22761;51.542;16.450;2022-08-20T03:29:55;26.97;;;24.05;;
36817;SDS011;22761;51.542;16.450;2022-08-20T03:32:22;26.50;;;23.57;;
36817;SDS011;22761;51.542;16.450;2022-08-20T03:34:49;29.02;;;25.52;;
36817;SDS011;22761;51.542;16.450;2022-08-20T03:37:16;27.75;;;24.75;;
36817;SDS011;22761;51.542;16.450;2022-08-20T03:39:43;27.25;;;24.32;;
36817;SDS011;22761;51.542;16.450;2022-08-20T03:42:11;28.30;;;25.30;;
36817;SDS011;22761;51.542;16.450;2022-08-20T03:44:38;28.47;;;23.87;;
36817;SDS011;22761;51.542;16.450;2022-08-20T03:47:05;29.25;;;25.75;;
36817;SDS011;22761;51.542;16.450;2022-08-20T03:49:34;29.23;;;25.57;;
36817;SDS011;22761;51.542;16.450;2022-08-20T03:52:02;28.70;;;24.98;;
36817;SDS011;22761;51.542;16.450;2022-08-20T03:54:31;28.25;;;25.15;;
36817;SDS011;22761;51.542;16.450;2022-08-20T03:56:59;27.15;;;23.42;;
36817;SDS011;22761;51.542;16.450;2022-08-20T03:59:28;29.23;;;24.77;;
36817;SDS011;22761;51.542;16.450;2022-08-20T04:01:59;27.10;;;24.12;;
36817;SDS011;22761;51.542;16.450;2022-08-20T04:04:36;26.97;;;23.83;;
36817;SDS011;22761;51.542;16.450;2022-08-20T04:07:13;28.20;;;24.65;;
36817;SDS011;22761;51.542;16.450;2022-08-20T04:09:39;26.68;;;23.85;;
36817;SDS011;22761;51.542;16.450;2022-08-20T04:12:08;26.15;;;23.40;;
36817;SDS011;22761;51.542;16.450;2022-08-20T04:14:38;25.75;;;22.48;;
36817;SDS011;22761;51.542;16.450;2022-08-20T04:17:05;26.10;;;23.30;;
36817;SDS011;22761;51.542;16.450;2022-08-20T04:19:36;26.05;;;22.42;;
36817;SDS011;22761;51.542;16.450;2022-08-20T04:22:04;26.62;;;23.67;;
36817;SDS011;22761;51.542;16.450;2022-08-20T04:24:33;25.27;;;22.32;;
36817;SDS011;22761;51.542;16.450;2022-08-20T04:27:02;25.25;;;22.50;;
36817;SDS011;22761;51.542;16.450;2022-08-20T04:29:30;27.32;;;24.05;;
36817;SDS011;22761;51.542;16.450;2022-08-20T04:31:59;26.97;;;22.80;;
36817;SDS011;22761;51.542;16.450;2022-08-20T04:34:27;24.82;;;22.32;;
36817;SDS011;22761;51.542;16.450;2022-08-20T04:36:55;25.77;;;22.50;;
36817;SDS011;22761;51.542;16.450;2022-08-20T04:39:22;28.10;;;24.30;;
36817;SDS011;22761;51.542;16.450;2022-08-20T04:41:49;28.55;;;24.52;;
36817;SDS011;22761;51.542;16.450;2022-08-20T04:44:16;26.23;;;23.40;;
36817;SDS011;22761;51.542;16.450;2022-08-20T04:46:44;28.87;;;24.92;;
36817;SDS011;22761;51.542;16.450;2022-08-20T04:49:10;33.20;;;25.23;;
36817;SDS011;22761;51.542;16.450;2022-08-20T04:51:37;29.05;;;24.37;;
36817;SDS011;22761;51.542;16.450;2022-08-20T04:54:04;31.75;;;26.37;;
36817;SDS011;22761;51.542;16.450;2022-08-20T04:56:33;31.82;;;26.07;;
36817;SDS011;22761;51.542;16.450;2022-08-20T04:59:03;32.40;;;27.10;;
36817;SDS011;22761;51.542;16.450;2022-08-20T05:01:32;28.12;;;24.85;;
36817;SDS011;22761;51.542;16.450;2022-08-20T05:04:00;29.63;;;25.57;;
36817;SDS011;22761;51.542;16.450;2022-08-20T05:06:29;29.72;;;25.55;;
36817;SDS011;22761;51.542;16.450;2022-08-20T05:08:58;31.75;;;26.40;;
36817;SDS011;22761;51.542;16.450;2022-08-20T05:11:26;28.73;;;25.43;;
36817;SDS011;22761;51.542;16.450;2022-08-20T05:13:54;29.42;;;26.23;;
36817;SDS011;22761;51.542;16.450;2022-08-20T05:16:22;30.88;;;26.20;;
36817;SDS011;22761;51.542;16.450;2022-08-20T05:18:49;30.05;;;26.37;;
36817;SDS011;22761;51.542;16.450;2022-08-20T05:21:17;30.60;;;25.62;;
36817;SDS011;22761;51.542;16.450;2022-08-20T05:23:45;31.23;;;26.17;;
36817;SDS011;22761;51.542;16.450;2022-08-20T05:26:14;29.15;;;24.70;;
36817;SDS011;22761;51.542;16.450;2022-08-20T05:28:49;29.18;;;23.98;;
36817;SDS011;22761;51.542;16.450;2022-08-20T05:31:20;30.88;;;25.92;;
36817;SDS011;22761;51.542;16.450;2022-08-20T05:33:48;29.45;;;24.85;;
36817;SDS011;22761;51.542;16.450;2022-08-20T05:36:17;30.57;;;25.35;;
36817;SDS011;22761;51.542;16.450;2022-08-20T05:38:47;32.08;;;26.00;;
36817;SDS011;22761;51.542;16.450;2022-08-20T05:41:15;30.37;;;25.55;;
36817;SDS011;22761;51.542;16.450;2022-08-20T05:43:42;27.27;;;23.10;;
36817;SDS011;22761;51.542;16.450;2022-08-20T05:46:10;28.12;;;25.10;;
36817;SDS011;22761;51.542;16.450;2022-08-20T05:48:38;31.27;;;25.02;;
36817;SDS011;22761;51.542;16.450;2022-08-20T05:51:05;29.90;;;24.95;;
36817;SDS011;22761;51.542;16.450;2022-08-20T05:53:32;29.87;;;24.43;;
36817;SDS011;22761;51.542;16.450;2022-08-20T05:55:59;27.52;;;24.18;;
36817;SDS011;22761;51.542;16.450;2022-08-20T05:58:27;27.95;;;24.87;;
36817;SDS011;22761;51.542;16.450;2022-08-20T06:00:56;27.73;;;24.53;;
36817;SDS011;22761;51.542;16.450;2022-08-20T06:03:23;26.20;;;23.38;;
36817;SDS011;22761;51.542;16.450;2022-08-20T06:06:09;29.48;;;24.50;;
36817;SDS011;22761;51.542;16.450;2022-08-20T06:08:37;28.87;;;25.17;;
36817;SDS011;22761;51.542;16.450;2022-08-20T06:11:04;28.50;;;25.43;;
36817;SDS011;22761;51.542;16.450;2022-08-20T06:13:31;27.20;;;24.30;;
36817;SDS011;22761;51.542;16.450;2022-08-20T06:16:00;25.77;;;23.07;;
36817;SDS011;22761;51.542;16.450;2022-08-20T06:18:27;29.55;;;25.97;;
36817;SDS011;22761;51.542;16.450;2022-08-20T06:20:54;28.07;;;24.82;;
36817;SDS011;22761;51.542;16.450;2022-08-20T06:23:22;29.90;;;24.25;;
36817;SDS011;22761;51.542;16.450;2022-08-20T06:25:50;28.02;;;24.50;;
36817;SDS011;22761;51.542;16.450;2022-08-20T06:28:17;28.85;;;25.77;;
36817;SDS011;22761;51.542;16.450;2022-08-20T06:30:44;30.92;;;25.12;;
36817;SDS011;22761;51.542;16.450;2022-08-20T06:33:12;27.62;;;23.92;;
36817;SDS011;22761;51.542;16.450;2022-08-20T06:35:39;27.13;;;24.10;;
36817;SDS011;22761;51.542;16.450;2022-08-20T06:38:08;28.35;;;24.72;;
36817;SDS011;22761;51.542;16.450;2022-08-20T06:40:38;25.92;;;23.10;;
36817;SDS011;22761;51.542;16.450;2022-08-20T06:43:04;26.80;;;24.07;;
36817;SDS011;22761;51.542;16.450;2022-08-20T06:45:33;25.43;;;22.80;;
36817;SDS011;22761;51.542;16.450;2022-08-20T06:48:04;27.48;;;24.57;;
36817;SDS011;22761;51.542;16.450;2022-08-20T06:50:36;27.02;;;24.15;;
36817;SDS011;22761;51.542;16.450;2022-08-20T06:53:10;26.45;;;23.83;;
36817;SDS011;22761;51.542;16.450;2022-08-20T06:55:42;24.50;;;21.68;;
36817;SDS011;22761;51.542;16.450;2022-08-20T06:58:12;24.12;;;21.62;;
36817;SDS011;22761;51.542;16.450;2022-08-20T07:00:40;25.37;;;22.65;;
36817;SDS011;22761;51.542;16.450;2022-08-20T07:03:09;23.10;;;20.40;;
36817;SDS011;22761;51.542;16.450;2022-08-20T07:05:38;23.47;;;21.15;;
36817;SDS011;22761;51.542;16.450;2022-08-20T07:08:13;22.90;;;20.48;;
36817;SDS011;22761;51.542;16.450;2022-08-20T07:10:39;23.25;;;20.65;;
36817;SDS011;22761;51.542;16.450;2022-08-20T07:13:16;23.35;;;20.97;;
36817;SDS011;22761;51.542;16.450;2022-08-20T07:15:46;22.52;;;20.27;;
36817;SDS011;22761;51.542;16.450;2022-08-20T07:18:14;24.00;;;21.50;;
36817;SDS011;22761;51.542;16.450;2022-08-20T07:20:42;23.60;;;21.30;;
36817;SDS011;22761;51.542;16.450;2022-08-20T07:23:09;24.05;;;21.65;;
36817;SDS011;22761;51.542;16.450;2022-08-20T07:25:39;23.65;;;21.25;;
36817;SDS011;22761;51.542;16.450;2022-08-20T07:28:13;23.55;;;21.30;;
36817;SDS011;22761;51.542;16.450;2022-08-20T07:30:44;22.55;;;20.25;;
36817;SDS011;22761;51.542;16.450;2022-08-20T07:33:31;22.52;;;20.17;;
36817;SDS011;22761;51.542;16.450;2022-08-20T07:35:59;23.35;;;20.97;;
36817;SDS011;22761;51.542;16.450;2022-08-20T07:38:29;22.40;;;20.20;;
36817;SDS011;22761;51.542;16.450;2022-08-20T07:41:00;21.60;;;19.40;;
36817;SDS011;22761;51.542;16.450;2022-08-20T07:43:33;22.07;;;19.92;;
36817;SDS011;22761;51.542;16.450;2022-08-20T07:46:01;22.05;;;19.80;;
36817;SDS011;22761;51.542;16.450;2022-08-20T07:48:31;22.98;;;20.68;;
36817;SDS011;22761;51.542;16.450;2022-08-20T07:50:59;22.20;;;19.52;;
36817;SDS011;22761;51.542;16.450;2022-08-20T07:53:30;21.50;;;19.35;;
36817;SDS011;22761;51.542;16.450;2022-08-20T07:56:00;23.10;;;20.80;;
36817;SDS011;22761;51.542;16.450;2022-08-20T07:58:31;21.87;;;19.67;;
36817;SDS011;22761;51.542;16.450;2022-08-20T08:03:27;20.85;;;18.75;;
36817;SDS011;22761;51.542;16.450;2022-08-20T08:05:54;21.80;;;19.62;;
36817;SDS011;22761;51.542;16.450;2022-08-20T08:08:24;21.55;;;19.50;;
36817;SDS011;22761;51.542;16.450;2022-08-20T08:10:57;21.65;;;19.05;;
36817;SDS011;22761;51.542;16.450;2022-08-20T08:13:32;21.87;;;19.67;;
36817;SDS011;22761;51.542;16.450;2022-08-20T08:16:04;22.60;;;20.37;;
36817;SDS011;22761;51.542;16.450;2022-08-20T08:18:39;22.13;;;20.02;;
36817;SDS011;22761;51.542;16.450;2022-08-20T08:21:08;22.32;;;20.23;;
36817;SDS011;22761;51.542;16.450;2022-08-20T08:23:38;21.17;;;19.07;;
36817;SDS011;22761;51.542;16.450;2022-08-20T08:26:12;22.13;;;19.90;;
36817;SDS011;22761;51.542;16.450;2022-08-20T08:28:41;20.92;;;18.82;;
36817;SDS011;22761;51.542;16.450;2022-08-20T08:31:11;22.15;;;19.92;;
36817;SDS011;22761;51.542;16.450;2022-08-20T08:33:40;22.60;;;20.35;;
36817;SDS011;22761;51.542;16.450;2022-08-20T08:36:08;22.22;;;19.95;;
36817;SDS011;22761;51.542;16.450;2022-08-20T08:38:38;22.05;;;19.87;;
36817;SDS011;22761;51.542;16.450;2022-08-20T08:41:19;22.93;;;20.45;;
36817;SDS011;22761;51.542;16.450;2022-08-20T08:43:55;23.85;;;19.98;;
36817;SDS011;22761;51.542;16.450;2022-08-20T08:46:29;22.27;;;19.65;;
36817;SDS011;22761;51.542;16.450;2022-08-20T08:49:00;21.73;;;19.62;;
36817;SDS011;22761;51.542;16.450;2022-08-20T08:51:35;23.30;;;20.85;;
36817;SDS011;22761;51.542;16.450;2022-08-20T08:54:06;21.23;;;19.20;;
36817;SDS011;22761;51.542;16.450;2022-08-20T08:56:35;21.93;;;19.65;;
36817;SDS011;22761;51.542;16.450;2022-08-20T08:59:04;21.10;;;19.07;;
36817;SDS011;22761;51.542;16.450;2022-08-20T09:01:39;20.10;;;18.15;;
36817;SDS011;22761;51.542;16.450;2022-08-20T09:04:14;21.68;;;19.57;;
36817;SDS011;22761;51.542;16.450;2022-08-20T09:06:44;20.72;;;18.62;;
36817;SDS011;22761;51.542;16.450;2022-08-20T09:09:17;20.55;;;18.55;;
36817;SDS011;22761;51.542;16.450;2022-08-20T09:11:49;21.75;;;19.30;;
36817;SDS011;22761;51.542;16.450;2022-08-20T09:14:19;23.10;;;20.80;;
36817;SDS011;22761;51.542;16.450;2022-08-20T09:16:49;23.20;;;20.90;;
36817;SDS011;22761;51.542;16.450;2022-08-20T09:19:17;21.85;;;19.55;;
36817;SDS011;22761;51.542;16.450;2022-08-20T09:21:44;23.47;;;21.07;;
36817;SDS011;22761;51.542;16.450;2022-08-20T09:24:11;23.85;;;21.40;;
36817;SDS011;22761;51.542;16.450;2022-08-20T09:26:38;23.32;;;20.15;;
36817;SDS011;22761;51.542;16.450;2022-08-20T09:29:06;22.70;;;20.40;;
36817;SDS011;22761;51.542;16.450;2022-08-20T09:31:33;24.72;;;22.25;;
36817;SDS011;22761;51.542;16.450;2022-08-20T09:34:00;23.22;;;20.88;;
36817;SDS011;22761;51.542;16.450;2022-08-20T09:36:27;24.55;;;22.05;;
36817;SDS011;22761;51.542;16.450;2022-08-20T09:38:54;24.02;;;21.52;;
36817;SDS011;22761;51.542;16.450;2022-08-20T09:41:22;23.05;;;20.88;;
36817;SDS011;22761;51.542;16.450;2022-08-20T09:43:49;24.12;;;21.60;;
36817;SDS011;22761;51.542;16.450;2022-08-20T09:46:16;24.45;;;21.87;;
36817;SDS011;22761;51.542;16.450;2022-08-20T09:48:43;23.87;;;21.57;;
36817;SDS011;22761;51.542;16.450;2022-08-20T09:51:10;24.12;;;21.82;;
36817;SDS011;22761;51.542;16.450;2022-08-20T09:53:37;25.97;;;23.30;;
36817;SDS011;22761;51.542;16.450;2022-08-20T09:56:05;24.15;;;21.57;;
36817;SDS011;22761;51.542;16.450;2022-08-20T09:58:34;23.40;;;21.27;;
36817;SDS011;22761;51.542;16.450;2022-08-20T10:01:07;27.58;;;22.30;;
36817;SDS011;22761;51.542;16.450;2022-08-20T10:03:43;24.15;;;21.87;;
36817;SDS011;22761;51.542;16.450;2022-08-20T10:06:13;23.55;;;21.37;;
36817;SDS011;22761;51.542;16.450;2022-08-20T10:08:44;23.73;;;21.35;;
36817;SDS011;22761;51.542;16.450;2022-08-20T10:11:12;23.15;;;20.72;;
36817;SDS011;22761;51.542;16.450;2022-08-20T10:13:40;23.42;;;21.07;;
36817;SDS011;22761;51.542;16.450;2022-08-20T10:16:07;23.83;;;21.60;;
36817;SDS011;22761;51.542;16.450;2022-08-20T10:18:35;24.12;;;21.75;;
36817;SDS011;22761;51.542;16.450;2022-08-20T10:21:02;25.50;;;23.10;;
36817;SDS011;22761;51.542;16.450;2022-08-20T10:23:31;25.00;;;22.62;;
36817;SDS011;22761;51.542;16.450;2022-08-20T10:25:58;27.10;;;24.37;;
36817;SDS011;22761;51.542;16.450;2022-08-20T10:28:25;28.02;;;25.05;;
36817;SDS011;22761;51.542;16.450;2022-08-20T10:30:52;28.12;;;25.27;;
36817;SDS011;22761;51.542;16.450;2022-08-20T10:33:19;27.65;;;24.87;;
36817;SDS011;22761;51.542;16.450;2022-08-20T10:35:46;27.32;;;24.63;;
36817;SDS011;22761;51.542;16.450;2022-08-20T10:38:13;28.05;;;25.27;;
36817;SDS011;22761;51.542;16.450;2022-08-20T10:40:40;27.13;;;24.63;;
36817;SDS011;22761;51.542;16.450;2022-08-20T10:43:08;25.30;;;22.90;;
36817;SDS011;22761;51.542;16.450;2022-08-20T10:45:35;26.42;;;23.75;;
36817;SDS011;22761;51.542;16.450;2022-08-20T10:48:02;27.00;;;24.20;;
36817;SDS011;22761;51.542;16.450;2022-08-20T10:50:29;27.52;;;24.70;;
36817;SDS011;22761;51.542;16.450;2022-08-20T10:52:56;26.05;;;23.40;;
36817;SDS011;22761;51.542;16.450;2022-08-20T10:55:23;26.68;;;23.45;;
36817;SDS011;22761;51.542;16.450;2022-08-20T10:57:50;25.82;;;23.22;;
36817;SDS011;22761;51.542;16.450;2022-08-20T11:00:18;27.22;;;24.72;;
36817;SDS011;22761;51.542;16.450;2022-08-20T11:02:45;26.70;;;23.77;;
36817;SDS011;22761;51.542;16.450;2022-08-20T11:05:12;25.43;;;22.98;;
36817;SDS011;22761;51.542;16.450;2022-08-20T11:07:40;25.65;;;22.98;;
36817;SDS011;22761;51.542;16.450;2022-08-20T11:12:36;24.77;;;22.15;;
36817;SDS011;22761;51.542;16.450;2022-08-20T11:15:03;24.77;;;22.37;;
36817;SDS011;22761;51.542;16.450;2022-08-20T11:17:33;25.85;;;22.93;;
36817;SDS011;22761;51.542;16.450;2022-08-20T11:20:02;25.52;;;23.12;;
36817;SDS011;22761;51.542;16.450;2022-08-20T11:22:33;28.07;;;23.98;;
36817;SDS011;22761;51.542;16.450;2022-08-20T11:25:00;27.10;;;24.60;;
36817;SDS011;22761;51.542;16.450;2022-08-20T11:27:30;27.17;;;24.47;;
36817;SDS011;22761;51.542;16.450;2022-08-20T11:30:00;27.52;;;24.92;;
36817;SDS011;22761;51.542;16.450;2022-08-20T11:32:31;26.17;;;23.75;;
36817;SDS011;22761;51.542;16.450;2022-08-20T11:34:57;25.75;;;23.25;;
36817;SDS011;22761;51.542;16.450;2022-08-20T11:37:25;28.23;;;25.52;;
36817;SDS011;22761;51.542;16.450;2022-08-20T11:39:53;27.55;;;24.75;;
36817;SDS011;22761;51.542;16.450;2022-08-20T11:42:21;28.70;;;25.60;;
36817;SDS011;22761;51.542;16.450;2022-08-20T11:44:49;35.43;;;24.70;;
36817;SDS011;22761;51.542;16.450;2022-08-20T11:47:23;28.30;;;25.27;;
36817;SDS011;22761;51.542;16.450;2022-08-20T11:49:57;26.48;;;23.98;;
36817;SDS011;22761;51.542;16.450;2022-08-20T11:52:44;30.95;;;25.02;;
36817;SDS011;22761;51.542;16.450;2022-08-20T11:55:12;29.98;;;25.25;;
36817;SDS011;22761;51.542;16.450;2022-08-20T11:57:43;27.87;;;24.98;;
36817;SDS011;22761;51.542;16.450;2022-08-20T12:00:14;27.17;;;24.30;;
36817;SDS011;22761;51.542;16.450;2022-08-20T12:02:49;25.90;;;23.50;;
36817;SDS011;22761;51.542;16.450;2022-08-20T12:05:17;26.05;;;23.42;;
36817;SDS011;22761;51.542;16.450;2022-08-20T12:07:44;27.13;;;24.60;;
36817;SDS011;22761;51.542;16.450;2022-08-20T12:10:12;26.55;;;23.90;;
36817;SDS011;22761;51.542;16.450;2022-08-20T12:12:40;27.10;;;24.55;;
36817;SDS011;22761;51.542;16.450;2022-08-20T12:15:08;26.00;;;23.40;;
36817;SDS011;22761;51.542;16.450;2022-08-20T12:17:35;26.33;;;23.67;;
36817;SDS011;22761;51.542;16.450;2022-08-20T12:20:05;30.23;;;24.30;;
36817;SDS011;22761;51.542;16.450;2022-08-20T12:22:35;25.68;;;23.18;;
36817;SDS011;22761;51.542;16.450;2022-08-20T12:25:04;25.62;;;23.18;;
36817;SDS011;22761;51.542;16.450;2022-08-20T12:27:33;25.70;;;23.30;;
36817;SDS011;22761;51.542;16.450;2022-08-20T12:30:18;26.12;;;23.50;;
36817;SDS011;22761;51.542;16.450;2022-08-20T12:32:46;25.68;;;23.07;;
36817;SDS011;22761;51.542;16.450;2022-08-20T12:35:15;26.05;;;23.35;;
36817;SDS011;22761;51.542;16.450;2022-08-20T12:37:43;25.25;;;22.87;;
36817;SDS011;22761;51.542;16.450;2022-08-20T12:40:13;25.88;;;23.38;;
36817;SDS011;22761;51.542;16.450;2022-08-20T12:42:47;26.12;;;23.45;;
36817;SDS011;22761;51.542;16.450;2022-08-20T12:45:14;25.88;;;23.22;;
36817;SDS011;22761;51.542;16.450;2022-08-20T12:47:43;26.17;;;23.73;;
36817;SDS011;22761;51.542;16.450;2022-08-20T12:50:13;25.37;;;23.00;;
36817;SDS011;22761;51.542;16.450;2022-08-20T12:52:43;26.93;;;24.23;;
36817;SDS011;22761;51.542;16.450;2022-08-20T12:55:15;25.05;;;22.50;;
36817;SDS011;22761;51.542;16.450;2022-08-20T12:57:46;24.80;;;22.37;;
36817;SDS011;22761;51.542;16.450;2022-08-20T13:00:20;24.47;;;22.05;;
36817;SDS011;22761;51.542;16.450;2022-08-20T13:02:53;26.15;;;23.62;;
36817;SDS011;22761;51.542;16.450;2022-08-20T13:05:23;25.57;;;23.07;;
36817;SDS011;22761;51.542;16.450;2022-08-20T13:07:51;24.92;;;22.32;;
36817;SDS011;22761;51.542;16.450;2022-08-20T13:10:20;24.45;;;22.20;;
36817;SDS011;22761;51.542;16.450;2022-08-20T13:12:53;24.50;;;21.87;;
36817;SDS011;22761;51.542;16.450;2022-08-20T13:15:20;24.27;;;21.87;;
36817;SDS011;22761;51.542;16.450;2022-08-20T13:17:52;24.15;;;21.75;;
36817;SDS011;22761;51.542;16.450;2022-08-20T13:20:21;24.50;;;22.22;;
36817;SDS011;22761;51.542;16.450;2022-08-20T13:22:53;25.80;;;23.27;;
36817;SDS011;22761;51.542;16.450;2022-08-20T13:27:55;25.20;;;22.65;;
36817;SDS011;22761;51.542;16.450;2022-08-20T13:30:25;24.20;;;21.90;;
36817;SDS011;22761;51.542;16.450;2022-08-20T13:32:53;23.95;;;21.68;;
36817;SDS011;22761;51.542;16.450;2022-08-20T13:35:20;25.27;;;22.87;;
36817;SDS011;22761;51.542;16.450;2022-08-20T13:37:47;24.15;;;21.62;;
36817;SDS011;22761;51.542;16.450;2022-08-20T13:40:15;24.43;;;22.20;;
36817;SDS011;22761;51.542;16.450;2022-08-20T13:42:43;24.00;;;21.60;;
36817;SDS011;22761;51.542;16.450;2022-08-20T13:45:10;24.45;;;22.13;;
36817;SDS011;22761;51.542;16.450;2022-08-20T13:47:39;26.87;;;23.98;;
36817;SDS011;22761;51.542;16.450;2022-08-20T13:50:14;25.30;;;22.80;;
36817;SDS011;22761;51.542;16.450;2022-08-20T13:52:42;25.55;;;23.07;;
36817;SDS011;22761;51.542;16.450;2022-08-20T13:55:17;24.82;;;22.58;;
36817;SDS011;22761;51.542;16.450;2022-08-20T13:57:44;24.98;;;22.42;;
36817;SDS011;22761;51.542;16.450;2022-08-20T14:00:15;24.90;;;22.13;;
36817;SDS011;22761;51.542;16.450;2022-08-20T14:02:55;26.33;;;23.73;;
36817;SDS011;22761;51.542;16.450;2022-08-20T14:05:29;26.30;;;23.73;;
36817;SDS011;22761;51.542;16.450;2022-08-20T14:10:54;26.57;;;22.00;;
36817;SDS011;22761;51.542;16.450;2022-08-20T14:13:34;23.42;;;17.10;;
36817;SDS011;22761;51.542;16.450;2022-08-20T14:16:12;15.85;;;13.18;;
36817;SDS011;22761;51.542;16.450;2022-08-20T14:18:49;10.32;;;8.90;;
36817;SDS011;22761;51.542;16.450;2022-08-20T14:21:34;7.75;;;5.10;;
36817;SDS011;22761;51.542;16.450;2022-08-20T14:24:09;11.08;;;6.28;;
36817;SDS011;22761;51.542;16.450;2022-08-20T14:26:48;11.93;;;8.40;;
36817;SDS011;22761;51.542;16.450;2022-08-20T14:29:27;12.00;;;8.45;;
36817;SDS011;22761;51.542;16.450;2022-08-20T14:31:56;10.88;;;7.00;;
36817;SDS011;22761;51.542;16.450;2022-08-20T14:34:23;9.00;;;7.00;;
36817;SDS011;22761;51.542;16.450;2022-08-20T14:36:54;11.38;;;8.65;;
36817;SDS011;22761;51.542;16.450;2022-08-20T14:39:22;21.50;;;10.65;;